Levent, Turkey

2:53 AM +03 on December 05, 2016 (GMT +0300)
| | Change Station

Elev -9999 ft 0.00 °N, 0.00 °E | Updated

Clear
Clear
°F
Feels Like °F
N
Wind Variable Wind from North
Gusts mph

Today
High -- | Low -- °F
--% Chance of Precip.
Yesterday
High -- | Low -- °F
Precip. -- in
Pressure 30.45 in
Visibility -9999.0 miles
Clouds
Dew Point Not available.
Humidity Not available.
Rainfall --
Snow Depth Not available.
8:13 AM 5:35 PM
Waxing Crescent, 26% visible
METAR LTBA 042320Z 01007KT 340V100 CAVOK 04/00 Q1031 NOSIG RMK RWY17L 35002KT RWY05 01007KT RWY23 02007KT
Pressure 30.45 in
Visibility -9999.0 miles
Clouds
Dew Point Not available.
Humidity Not available.
Rainfall --
Snow Depth Not available.
8:13 AM 5:35 PM
Waxing Crescent, 26% visible
METAR LTBA 042320Z 01007KT 340V100 CAVOK 04/00 Q1031 NOSIG RMK RWY17L 35002KT RWY05 01007KT RWY23 02007KT

10-Day Weather Forecast

×

Almanac

Astronomy

Dec. 05, 2016 Rise Set
Actual Time
Civil Twilight
Nautical Twilight
Astronomical Twilight
Moon
Length of Visible Light
Length of Day
Tomorrow will be .
, % of the Moon is Illuminated

Today's Extremes

Country Highs Country Lows

Community

WunderPhotos

Upload Photos

1,955,703 photos uploaded!

WunderBlog® & News

Nearby

Air Quality

  Air Quality AQ Index Pollutant
Not available.

Snow Depth

Station Depth Elevation

Earthquake Activity

City Distance Mag. Time & Date
Minimum magnitude displayed is 2.5.

Coastal Water Temperatures

Place Temperature

Stations

Nearby Weather Stations

Station Location Temp. Windchill Dew Point Humidity Wind Precip. Elev Updated Type